This is the latest recevied weather packets stored in our database for station/object VK3XEM-13. If no packets are shown the sender has not sent any weather packets the latest 10 day(s).
| Time | Temp. | Humidity | Pressure | Rain* | Wind** | Luminosity | Snow |
|---|---|---|---|---|---|---|---|
| 1778219234 | 13.89° C | 77% | 1021.2 hPa | 0 mm | - | 139 W/m² | - |
| 1778218334 | 13.89° C | 78% | 1021.2 hPa | 0.25 mm | - | 133 W/m² | - |
| 1778217726 | 13.89° C | 80% | 1021.2 hPa | 0.25 mm | - | 119 W/m² | - |
| 1778216535 | 13.33° C | 83% | 1020.9 hPa | 0.25 mm | - | 204 W/m² | - |
| 1778215635 | 13.33° C | 86% | 1021.2 hPa | 0.25 mm | - | 201 W/m² | - |
| 1778214734 | 15° C | 73% | 1021.2 hPa | 0 mm | - | 149 W/m² | - |
| 1778213834 | 15.56° C | 70% | 1020.9 hPa | 0 mm | - | 519 W/m² | - |
| 1778212934 | 14.44° C | 73% | 1020.9 hPa | 0 mm | - | 232 W/m² | - |
| 1778212034 | 15° C | 73% | 1020.9 hPa | 0 mm | - | 196 W/m² | - |
| 1778211135 | 14.44° C | 76% | 1020.9 hPa | 0.25 mm | - | 272 W/m² | - |
| 1778210234 | 14.44° C | 76% | 1020.9 hPa | 0.25 mm | - | 203 W/m² | - |
| 1778209334 | 14.44° C | 76% | 1020.9 hPa | 0.25 mm | - | 396 W/m² | - |
| 1778208435 | 13.33° C | 81% | 1020.9 hPa | 0.25 mm | - | 283 W/m² | - |
| 1778207534 | 13.89° C | 81% | 1020.9 hPa | 0 mm | - | 125 W/m² | - |
| 1778206636 | 12.78° C | 87% | 1021.2 hPa | 0 mm | - | 215 W/m² | - |
| 1778205735 | 13.89° C | 84% | 1021.2 hPa | 0 mm | - | 204 W/m² | - |
| 1778204834 | 13.33° C | 84% | 1021.5 hPa | 0 mm | - | 246 W/m² | - |
| 1778203935 | 13.89° C | 80% | 1021.2 hPa | 0 mm | - | 163 W/m² | - |
| 1778203034 | 12.78° C | 87% | 1021.2 hPa | 0.25 mm | - | 238 W/m² | - |
| 1778202135 | 12.78° C | 90% | 1021.2 hPa | 0.25 mm | - | 78 W/m² | - |
| 1778201235 | 13.33° C | 86% | 1021.2 hPa | 0.25 mm | - | 70 W/m² | - |
| 1778200335 | 12.22° C | 91% | 1020.9 hPa | 0.25 mm | - | 212 W/m² | - |
| 1778199434 | 12.78° C | 88% | 1020.5 hPa | 0 mm | - | 56 W/m² | - |
| 1778198536 | 13.33° C | 86% | 1020.5 hPa | 0 mm | - | 247 W/m² | - |
| 1778197635 | 12.78° C | 90% | 1020.9 hPa | 0 mm | - | 210 W/m² | - |
* Rain latest hour (hover to see other rain measurements)
** Current wind speed in m/s (hover to see current wind gust speed)